Amelia — SVA3840 — position and weather

sailwx.info

Track history (hours):
 
Tides and Currents Weather Stations Pressure Air Temp Water Temp Dewpoint Dewpoint Depression Visibility Wind Speed Wind Dir Waves Ship Positions

Amelia

Last reported at 2017-Sep-10 15:09 UTC. Time now 2017-Sep-20 18:34 UTC.
Position N 37°01' E 025°06'.
Warning: this ship's position is 10 days out of date.

Length 14 m.

Type: Sailing vessel. MMSI: 239735200.

Date/timePositionNaut miles runAvg speedWind from/ knotsBaromVisibWave heightAir tempDewpointWater temp
2017-Sep-10 15:09N 37°01' E 025°06'1 8.2
2017-Sep-10 15:00N 37°03' E 025°06'4 3.7
2017-Sep-10 14:00N 37°06' E 025°05'4 8.7
2017-Sep-10 13:30N 37°08' E 024°60'4 8.6
2017-Sep-10 13:00N 37°09' E 024°55'62 2.9
2017-Sep-09 15:38N 37°44' E 023°50'2 7.6
2017-Sep-09 15:23N 37°45' E 023°48'3 7.8
2017-Sep-09 15:00N 37°47' E 023°46'4 7.9
2017-Sep-09 14:30N 37°51' E 023°44'4 7.4
2017-Sep-09 14:00N 37°54' E 023°42'0 0.9
2017-Sep-09 13:28N 37°55' E 023°42'0 0.0
2017-Sep-09 12:58N 37°55' E 023°42'0 0.0
2017-Sep-09 12:28N 37°55' E 023°42'0 0.0
2017-Sep-09 11:58N 37°55' E 023°42'0 0.0
2017-Sep-09 11:29N 37°55' E 023°42'0 0.0
2017-Sep-09 10:59N 37°55' E 023°42'0 0.0
2017-Sep-09 10:29N 37°55' E 023°42'0 0.0
2017-Sep-09 09:59N 37°55' E 023°42'0 0.0
2017-Sep-09 09:29N 37°55' E 023°42'0 0.0
2017-Sep-09 08:59N 37°55' E 023°42'0 0.0
2017-Sep-09 08:29N 37°55' E 023°42'0 0.0
2017-Sep-09 07:59N 37°55' E 023°42'0 0.0
2017-Sep-09 07:29N 37°55' E 023°42'0 0.0
2017-Sep-09 06:59N 37°55' E 023°42'0 0.0
2017-Sep-09 06:29N 37°55' E 023°42'0 0.0
2017-Sep-09 05:59N 37°55' E 023°42'0 0.0
2017-Sep-09 05:29N 37°55' E 023°42'0 0.0
2017-Sep-09 04:59N 37°55' E 023°42'0 0.0
2017-Sep-09 04:29N 37°55' E 023°42'0 0.0
2017-Sep-09 03:56N 37°55' E 023°42'0 0.0
2017-Sep-09 03:29N 37°55' E 023°42'0 0.0
2017-Sep-09 02:59N 37°55' E 023°42'0 0.0
2017-Sep-09 02:29N 37°55' E 023°42'0 0.0
2017-Sep-09 01:59N 37°55' E 023°42'0 0.0
2017-Sep-09 01:29N 37°55' E 023°42'0 0.0
2017-Sep-09 00:59N 37°55' E 023°42'0 0.0
2017-Sep-09 00:29N 37°55' E 023°42'0 0.0
2017-Sep-08 23:59N 37°55' E 023°42'0 0.0
2017-Sep-08 23:29N 37°55' E 023°42'0 0.0
2017-Sep-08 22:56N 37°55' E 023°42'0 0.0
2017-Sep-08 22:29N 37°55' E 023°42'0 0.0
2017-Sep-08 21:58N 37°55' E 023°42'0 0.0
2017-Sep-08 21:28N 37°55' E 023°42'0 0.0
2017-Sep-08 20:58N 37°55' E 023°42'0 0.0
2017-Sep-08 20:28N 37°55' E 023°42'0 0.0
2017-Sep-08 19:58N 37°55' E 023°42'0 0.0
2017-Sep-08 19:28N 37°55' E 023°42'0 0.0
2017-Sep-08 18:58N 37°55' E 023°42'0 0.0
2017-Sep-08 18:28N 37°55' E 023°42'0 0.0
2017-Sep-08 17:58N 37°55' E 023°42'0 0.0
2017-Sep-08 17:25N 37°55' E 023°42'0 0.0
2017-Sep-08 16:58N 37°55' E 023°42'0 0.0
2017-Sep-08 16:28N 37°55' E 023°42'0 0.0
2017-Sep-08 15:58N 37°55' E 023°42'0 0.0
2017-Sep-08 15:28N 37°55' E 023°42'2 5.4
2017-Sep-08 15:00N 37°54' E 023°39'4 8.7
2017-Sep-08 14:30N 37°51' E 023°35'4 8.4
2017-Sep-08 14:00N 37°49' E 023°30'4 8.3
2017-Sep-08 13:30N 37°47' E 023°26'4 7.6
2017-Sep-08 13:00N 37°43' E 023°24'1 0.6
2017-Sep-08 12:04N 37°43' E 023°23'0 0.0
2017-Sep-08 11:58N 37°43' E 023°23'0 0.0
2017-Sep-08 11:19N 37°43' E 023°23'0 0.1
2017-Sep-08 11:00N 37°43' E 023°23'2 4.3
2017-Sep-08 10:26N 37°41' E 023°23'9 0.4
2017-Sep-07 10:00N 37°38' E 023°12'4 8.7
2017-Sep-07 09:30N 37°38' E 023°18'  
2017-Sep-03 11:55N 37°34' E 023°27'5 8.4
2017-Sep-03 11:22N 37°38' E 023°30'3 8.4
2017-Sep-03 10:59N 37°41' E 023°31'4 1.3
2017-Sep-03 07:57N 37°45' E 023°33'3 7.8
2017-Sep-03 07:31N 37°47' E 023°36'4 8.4
2017-Sep-03 07:00N 37°51' E 023°38'4 8.5
2017-Sep-03 06:29N 37°54' E 023°42'1 1.5
2017-Sep-03 06:00N 37°55' E 023°42'0 0.0
2017-Sep-03 05:30N 37°55' E 023°42'0 0.0
2017-Sep-03 05:00N 37°55' E 023°42'0 0.0
2017-Sep-03 04:27N 37°55' E 023°42'0 0.0
2017-Sep-03 04:00N 37°55' E 023°42'0 0.0
2017-Sep-03 03:30N 37°55' E 023°42'0 0.0
2017-Sep-03 03:00N 37°55' E 023°42'0 0.0
2017-Sep-03 02:30N 37°55' E 023°42'0 0.0
2017-Sep-03 02:00N 37°55' E 023°42'0 0.0
2017-Sep-03 01:30N 37°55' E 023°42'0 0.0
2017-Sep-03 01:00N 37°55' E 023°42'0 0.0
2017-Sep-03 00:30N 37°55' E 023°42'0 0.0
2017-Sep-03 00:00N 37°55' E 023°42'0 0.0
2017-Sep-02 23:30N 37°55' E 023°42'0 0.0
2017-Sep-02 23:00N 37°55' E 023°42'0 0.0
2017-Sep-02 22:30N 37°55' E 023°42'0 0.0
2017-Sep-02 22:00N 37°55' E 023°42'0 0.0
2017-Sep-02 21:30N 37°55' E 023°42'0 0.0
2017-Sep-02 21:00N 37°55' E 023°42'0 0.0
2017-Sep-02 20:30N 37°55' E 023°42'0 0.0
2017-Sep-02 20:00N 37°55' E 023°42'0 0.0
2017-Sep-02 19:30N 37°55' E 023°42'0 0.0
2017-Sep-02 19:00N 37°55' E 023°42'0 0.0
2017-Sep-02 18:27N 37°55' E 023°42'0 0.0
2017-Sep-02 18:00N 37°55' E 023°42'0 0.0
2017-Sep-02 17:30N 37°55' E 023°42'0 0.0
2017-Sep-02 17:00N 37°55' E 023°42'0 0.0
2017-Sep-02 16:30N 37°55' E 023°42'0 0.0
2017-Sep-02 16:00N 37°55' E 023°42'0 0.0
2017-Sep-02 15:30N 37°55' E 023°42'0 0.0
2017-Sep-02 15:00N 37°55' E 023°42'0 0.0
2017-Sep-02 14:30N 37°55' E 023°42'0 0.0
2017-Sep-02 13:57N 37°55' E 023°42'0 0.0
2017-Sep-02 13:30N 37°55' E 023°42'0 0.0
2017-Sep-02 13:00N 37°55' E 023°42'0 0.0
2017-Sep-02 12:30N 37°55' E 023°42'0 0.0
2017-Sep-02 11:56N 37°55' E 023°42'0 0.0
2017-Sep-02 11:29N 37°55' E 023°42'0 0.0
2017-Sep-02 10:59N 37°55' E 023°42'0 0.0
2017-Sep-02 10:29N 37°55' E 023°42'0 0.0
2017-Sep-02 09:59N 37°55' E 023°42'0 0.0
2017-Sep-02 09:29N 37°55' E 023°42'0 0.0
2017-Sep-02 08:56N 37°55' E 023°42'0 0.0
2017-Sep-02 08:29N 37°55' E 023°42'0 0.0
2017-Sep-02 07:56N 37°55' E 023°42'0 0.0
2017-Sep-02 07:29N 37°55' E 023°42'0 0.0
2017-Sep-02 06:59N 37°55' E 023°42'0 0.0
2017-Sep-02 06:29N 37°55' E 023°42'0 0.0
2017-Sep-02 05:59N 37°55' E 023°42'0 0.0
2017-Sep-02 05:29N 37°55' E 023°42'0 0.0
2017-Sep-02 04:59N 37°55' E 023°42'0 0.0
2017-Sep-02 04:29N 37°55' E 023°42'0 0.0
2017-Sep-02 03:59N 37°55' E 023°42'0 0.0
2017-Sep-02 03:29N 37°55' E 023°42'0 0.0
2017-Sep-02 02:59N 37°55' E 023°42'0 0.0
2017-Sep-02 02:29N 37°55' E 023°42'0 0.0
2017-Sep-02 01:59N 37°55' E 023°42'0 0.0
2017-Sep-02 01:29N 37°55' E 023°42'0 0.0
2017-Sep-02 00:59N 37°55' E 023°42'0 0.0
2017-Sep-02 00:29N 37°55' E 023°42'0 0.0
2017-Sep-01 23:59N 37°55' E 023°42'0 0.0
2017-Sep-01 23:30N 37°55' E 023°42'0 0.0
2017-Sep-01 23:00N 37°55' E 023°42'0 0.0
2017-Sep-01 22:30N 37°55' E 023°42'0 0.0
2017-Sep-01 22:00N 37°55' E 023°42'0 0.0
2017-Sep-01 21:30N 37°55' E 023°42'0 0.0
2017-Sep-01 21:00N 37°55' E 023°42'0 0.0
2017-Sep-01 20:30N 37°55' E 023°42'0 0.0
2017-Sep-01 20:00N 37°55' E 023°42'0 0.0
2017-Sep-01 19:30N 37°55' E 023°42'0 0.0
2017-Sep-01 19:00N 37°55' E 023°42'0 0.0
2017-Sep-01 18:30N 37°55' E 023°42'0 0.0
2017-Sep-01 18:00N 37°55' E 023°42'0 0.0
2017-Sep-01 17:30N 37°55' E 023°42'0 0.0
2017-Sep-01 17:00N 37°55' E 023°42'0 0.0
2017-Sep-01 16:30N 37°55' E 023°42'0 0.0
2017-Sep-01 16:00N 37°55' E 023°42'0 0.0
2017-Sep-01 15:30N 37°55' E 023°42'0 0.0
2017-Sep-01 15:00N 37°55' E 023°42'0 0.0
2017-Sep-01 14:30N 37°55' E 023°42'0 0.0
2017-Sep-01 14:00N 37°55' E 023°42'0 0.0
2017-Sep-01 13:30N 37°55' E 023°42'0 0.0
2017-Sep-01 13:00N 37°55' E 023°42'0 0.0
2017-Sep-01 12:30N 37°55' E 023°42'0 0.0
2017-Sep-01 12:00N 37°55' E 023°42'0 0.0
2017-Sep-01 11:30N 37°55' E 023°42'0 0.0
2017-Sep-01 11:00N 37°55' E 023°42'0 0.0
2017-Sep-01 10:30N 37°55' E 023°42'0 0.0
2017-Sep-01 10:00N 37°55' E 023°42'0 0.0
2017-Sep-01 09:30N 37°55' E 023°42'0 0.0
2017-Sep-01 09:00N 37°55' E 023°42'0 0.0
2017-Sep-01 08:30N 37°55' E 023°42'0 0.0
2017-Sep-01 07:57N 37°55' E 023°42'0 0.0
2017-Sep-01 07:30N 37°55' E 023°42'0 0.0
2017-Sep-01 07:00N 37°55' E 023°42'0 0.0
2017-Sep-01 06:30N 37°55' E 023°42'0 0.0
2017-Sep-01 06:00N 37°55' E 023°42'0 0.0
2017-Sep-01 05:30N 37°55' E 023°42'0 0.0
2017-Sep-01 05:00N 37°55' E 023°42'0 0.0
2017-Sep-01 04:30N 37°55' E 023°42'0 0.0
2017-Sep-01 04:00N 37°55' E 023°42'0 0.0
2017-Sep-01 03:30N 37°55' E 023°42'0 0.0
2017-Sep-01 03:00N 37°55' E 023°42'0 0.0
2017-Sep-01 02:30N 37°55' E 023°42'0 0.0
2017-Sep-01 02:00N 37°55' E 023°42'0 0.0
2017-Sep-01 01:30N 37°55' E 023°42'0 0.0
2017-Sep-01 01:00N 37°55' E 023°42'0 0.0
2017-Sep-01 00:30N 37°55' E 023°42'0 0.0
2017-Sep-01 00:00N 37°55' E 023°42'0 0.0
2017-Aug-31 23:30N 37°55' E 023°42'0 0.0
2017-Aug-31 23:00N 37°55' E 023°42'0 0.0
2017-Aug-31 22:27N 37°55' E 023°42'0 0.0
2017-Aug-31 22:00N 37°55' E 023°42'0 0.0
2017-Aug-31 21:30N 37°55' E 023°42'0 0.0
2017-Aug-31 21:00N 37°55' E 023°42'0 0.0
2017-Aug-31 20:30N 37°55' E 023°42'0 0.0
2017-Aug-31 20:00N 37°55' E 023°42'0 0.0
2017-Aug-31 19:30N 37°55' E 023°42'0 0.0
2017-Aug-31 19:00N 37°55' E 023°42'0 0.0
2017-Aug-31 18:30N 37°55' E 023°42'0 0.0
2017-Aug-31 18:00N 37°55' E 023°42'0 0.0
2017-Aug-31 17:30N 37°55' E 023°42'0 0.0
2017-Aug-31 17:00N 37°55' E 023°42'0 0.0
2017-Aug-31 16:30N 37°55' E 023°42'0 0.0
2017-Aug-31 16:00N 37°55' E 023°42'0 0.0
2017-Aug-31 15:30N 37°55' E 023°42'  
Track history (hours):
 
Tides and Currents Weather Stations Pressure Air Temp Water Temp Dewpoint Dewpoint Depression Visibility Wind Speed Wind Dir Waves Ship Positions

Amelia

Last reported at 2017-Sep-10 15:09 UTC. Time now 2017-Sep-20 18:34 UTC.
Position N 37°01' E 025°06'.
Warning: this ship's position is 10 days out of date.

Length 14 m.

Type: Sailing vessel. MMSI: 239735200.

Date/timePositionNaut miles runAvg speedWind from/ knotsBaromVisibWave heightAir tempDewpointWater temp
2017-Sep-10 15:09N 37°01' E 025°06'1 8.2
2017-Sep-10 15:00N 37°03' E 025°06'4 3.7
2017-Sep-10 14:00N 37°06' E 025°05'4 8.7
2017-Sep-10 13:30N 37°08' E 024°60'4 8.6
2017-Sep-10 13:00N 37°09' E 024°55'62 2.9
2017-Sep-09 15:38N 37°44' E 023°50'2 7.6
2017-Sep-09 15:23N 37°45' E 023°48'3 7.8
2017-Sep-09 15:00N 37°47' E 023°46'4 7.9
2017-Sep-09 14:30N 37°51' E 023°44'4 7.4
2017-Sep-09 14:00N 37°54' E 023°42'0 0.9
2017-Sep-09 13:28N 37°55' E 023°42'0 0.0
2017-Sep-09 12:58N 37°55' E 023°42'0 0.0
2017-Sep-09 12:28N 37°55' E 023°42'0 0.0
2017-Sep-09 11:58N 37°55' E 023°42'0 0.0
2017-Sep-09 11:29N 37°55' E 023°42'0 0.0
2017-Sep-09 10:59N 37°55' E 023°42'0 0.0
2017-Sep-09 10:29N 37°55' E 023°42'0 0.0
2017-Sep-09 09:59N 37°55' E 023°42'0 0.0
2017-Sep-09 09:29N 37°55' E 023°42'0 0.0
2017-Sep-09 08:59N 37°55' E 023°42'0 0.0
2017-Sep-09 08:29N 37°55' E 023°42'0 0.0
2017-Sep-09 07:59N 37°55' E 023°42'0 0.0
2017-Sep-09 07:29N 37°55' E 023°42'0 0.0
2017-Sep-09 06:59N 37°55' E 023°42'0 0.0
2017-Sep-09 06:29N 37°55' E 023°42'0 0.0
2017-Sep-09 05:59N 37°55' E 023°42'0 0.0
2017-Sep-09 05:29N 37°55' E 023°42'0 0.0
2017-Sep-09 04:59N 37°55' E 023°42'0 0.0
2017-Sep-09 04:29N 37°55' E 023°42'0 0.0
2017-Sep-09 03:56N 37°55' E 023°42'0 0.0
2017-Sep-09 03:29N 37°55' E 023°42'0 0.0
2017-Sep-09 02:59N 37°55' E 023°42'0 0.0
2017-Sep-09 02:29N 37°55' E 023°42'0 0.0
2017-Sep-09 01:59N 37°55' E 023°42'0 0.0
2017-Sep-09 01:29N 37°55' E 023°42'0 0.0
2017-Sep-09 00:59N 37°55' E 023°42'0 0.0
2017-Sep-09 00:29N 37°55' E 023°42'0 0.0
2017-Sep-08 23:59N 37°55' E 023°42'0 0.0
2017-Sep-08 23:29N 37°55' E 023°42'0 0.0
2017-Sep-08 22:56N 37°55' E 023°42'0 0.0
2017-Sep-08 22:29N 37°55' E 023°42'0 0.0
2017-Sep-08 21:58N 37°55' E 023°42'0 0.0
2017-Sep-08 21:28N 37°55' E 023°42'0 0.0
2017-Sep-08 20:58N 37°55' E 023°42'0 0.0
2017-Sep-08 20:28N 37°55' E 023°42'0 0.0
2017-Sep-08 19:58N 37°55' E 023°42'0 0.0
2017-Sep-08 19:28N 37°55' E 023°42'0 0.0
2017-Sep-08 18:58N 37°55' E 023°42'0 0.0
2017-Sep-08 18:28N 37°55' E 023°42'0 0.0
2017-Sep-08 17:58N 37°55' E 023°42'0 0.0
2017-Sep-08 17:25N 37°55' E 023°42'0 0.0
2017-Sep-08 16:58N 37°55' E 023°42'0 0.0
2017-Sep-08 16:28N 37°55' E 023°42'0 0.0
2017-Sep-08 15:58N 37°55' E 023°42'0 0.0
2017-Sep-08 15:28N 37°55' E 023°42'2 5.4
2017-Sep-08 15:00N 37°54' E 023°39'4 8.7
2017-Sep-08 14:30N 37°51' E 023°35'4 8.4
2017-Sep-08 14:00N 37°49' E 023°30'4 8.3
2017-Sep-08 13:30N 37°47' E 023°26'4 7.6
2017-Sep-08 13:00N 37°43' E 023°24'1 0.6
2017-Sep-08 12:04N 37°43' E 023°23'0 0.0
2017-Sep-08 11:58N 37°43' E 023°23'0 0.0
2017-Sep-08 11:19N 37°43' E 023°23'0 0.1
2017-Sep-08 11:00N 37°43' E 023°23'2 4.3
2017-Sep-08 10:26N 37°41' E 023°23'9 0.4
2017-Sep-07 10:00N 37°38' E 023°12'4 8.7
2017-Sep-07 09:30N 37°38' E 023°18'  
2017-Sep-03 11:55N 37°34' E 023°27'5 8.4
2017-Sep-03 11:22N 37°38' E 023°30'3 8.4
2017-Sep-03 10:59N 37°41' E 023°31'4 1.3
2017-Sep-03 07:57N 37°45' E 023°33'3 7.8
2017-Sep-03 07:31N 37°47' E 023°36'4 8.4
2017-Sep-03 07:00N 37°51' E 023°38'4 8.5
2017-Sep-03 06:29N 37°54' E 023°42'1 1.5
2017-Sep-03 06:00N 37°55' E 023°42'0 0.0
2017-Sep-03 05:30N 37°55' E 023°42'0 0.0
2017-Sep-03 05:00N 37°55' E 023°42'0 0.0
2017-Sep-03 04:27N 37°55' E 023°42'0 0.0
2017-Sep-03 04:00N 37°55' E 023°42'0 0.0
2017-Sep-03 03:30N 37°55' E 023°42'0 0.0
2017-Sep-03 03:00N 37°55' E 023°42'0 0.0
2017-Sep-03 02:30N 37°55' E 023°42'0 0.0
2017-Sep-03 02:00N 37°55' E 023°42'0 0.0
2017-Sep-03 01:30N 37°55' E 023°42'0 0.0
2017-Sep-03 01:00N 37°55' E 023°42'0 0.0
2017-Sep-03 00:30N 37°55' E 023°42'0 0.0
2017-Sep-03 00:00N 37°55' E 023°42'0 0.0
2017-Sep-02 23:30N 37°55' E 023°42'0 0.0
2017-Sep-02 23:00N 37°55' E 023°42'0 0.0
2017-Sep-02 22:30N 37°55' E 023°42'0 0.0
2017-Sep-02 22:00N 37°55' E 023°42'0 0.0
2017-Sep-02 21:30N 37°55' E 023°42'0 0.0
2017-Sep-02 21:00N 37°55' E 023°42'0 0.0
2017-Sep-02 20:30N 37°55' E 023°42'0 0.0
2017-Sep-02 20:00N 37°55' E 023°42'0 0.0
2017-Sep-02 19:30N 37°55' E 023°42'0 0.0
2017-Sep-02 19:00N 37°55' E 023°42'0 0.0
2017-Sep-02 18:27N 37°55' E 023°42'0 0.0
2017-Sep-02 18:00N 37°55' E 023°42'0 0.0
2017-Sep-02 17:30N 37°55' E 023°42'0 0.0
2017-Sep-02 17:00N 37°55' E 023°42'0 0.0
2017-Sep-02 16:30N 37°55' E 023°42'0 0.0
2017-Sep-02 16:00N 37°55' E 023°42'0 0.0
2017-Sep-02 15:30N 37°55' E 023°42'0 0.0
2017-Sep-02 15:00N 37°55' E 023°42'0 0.0
2017-Sep-02 14:30N 37°55' E 023°42'0 0.0
2017-Sep-02 13:57N 37°55' E 023°42'0 0.0
2017-Sep-02 13:30N 37°55' E 023°42'0 0.0
2017-Sep-02 13:00N 37°55' E 023°42'0 0.0
2017-Sep-02 12:30N 37°55' E 023°42'0 0.0
2017-Sep-02 11:56N 37°55' E 023°42'0 0.0
2017-Sep-02 11:29N 37°55' E 023°42'0 0.0
2017-Sep-02 10:59N 37°55' E 023°42'0 0.0
2017-Sep-02 10:29N 37°55' E 023°42'0 0.0
2017-Sep-02 09:59N 37°55' E 023°42'0 0.0
2017-Sep-02 09:29N 37°55' E 023°42'0 0.0
2017-Sep-02 08:56N 37°55' E 023°42'0 0.0
2017-Sep-02 08:29N 37°55' E 023°42'0 0.0
2017-Sep-02 07:56N 37°55' E 023°42'0 0.0
2017-Sep-02 07:29N 37°55' E 023°42'0 0.0
2017-Sep-02 06:59N 37°55' E 023°42'0 0.0
2017-Sep-02 06:29N 37°55' E 023°42'0 0.0
2017-Sep-02 05:59N 37°55' E 023°42'0 0.0
2017-Sep-02 05:29N 37°55' E 023°42'0 0.0
2017-Sep-02 04:59N 37°55' E 023°42'0 0.0
2017-Sep-02 04:29N 37°55' E 023°42'0 0.0
2017-Sep-02 03:59N 37°55' E 023°42'0 0.0
2017-Sep-02 03:29N 37°55' E 023°42'0 0.0
2017-Sep-02 02:59N 37°55' E 023°42'0 0.0
2017-Sep-02 02:29N 37°55' E 023°42'0 0.0
2017-Sep-02 01:59N 37°55' E 023°42'0 0.0
2017-Sep-02 01:29N 37°55' E 023°42'0 0.0
2017-Sep-02 00:59N 37°55' E 023°42'0 0.0
2017-Sep-02 00:29N 37°55' E 023°42'0 0.0
2017-Sep-01 23:59N 37°55' E 023°42'0 0.0
2017-Sep-01 23:30N 37°55' E 023°42'0 0.0
2017-Sep-01 23:00N 37°55' E 023°42'0 0.0
2017-Sep-01 22:30N 37°55' E 023°42'0 0.0
2017-Sep-01 22:00N 37°55' E 023°42'0 0.0
2017-Sep-01 21:30N 37°55' E 023°42'0 0.0
2017-Sep-01 21:00N 37°55' E 023°42'0 0.0
2017-Sep-01 20:30N 37°55' E 023°42'0 0.0
2017-Sep-01 20:00N 37°55' E 023°42'0 0.0
2017-Sep-01 19:30N 37°55' E 023°42'0 0.0
2017-Sep-01 19:00N 37°55' E 023°42'0 0.0
2017-Sep-01 18:30N 37°55' E 023°42'0 0.0
2017-Sep-01 18:00N 37°55' E 023°42'0 0.0
2017-Sep-01 17:30N 37°55' E 023°42'0 0.0
2017-Sep-01 17:00N 37°55' E 023°42'0 0.0
2017-Sep-01 16:30N 37°55' E 023°42'0 0.0
2017-Sep-01 16:00N 37°55' E 023°42'0 0.0
2017-Sep-01 15:30N 37°55' E 023°42'0 0.0
2017-Sep-01 15:00N 37°55' E 023°42'0 0.0
2017-Sep-01 14:30N 37°55' E 023°42'0 0.0
2017-Sep-01 14:00N 37°55' E 023°42'0 0.0
2017-Sep-01 13:30N 37°55' E 023°42'0 0.0
2017-Sep-01 13:00N 37°55' E 023°42'0 0.0
2017-Sep-01 12:30N 37°55' E 023°42'0 0.0
2017-Sep-01 12:00N 37°55' E 023°42'0 0.0
2017-Sep-01 11:30N 37°55' E 023°42'0 0.0
2017-Sep-01 11:00N 37°55' E 023°42'0 0.0
2017-Sep-01 10:30N 37°55' E 023°42'0 0.0
2017-Sep-01 10:00N 37°55' E 023°42'0 0.0
2017-Sep-01 09:30N 37°55' E 023°42'0 0.0
2017-Sep-01 09:00N 37°55' E 023°42'0 0.0
2017-Sep-01 08:30N 37°55' E 023°42'0 0.0
2017-Sep-01 07:57N 37°55' E 023°42'0 0.0
2017-Sep-01 07:30N 37°55' E 023°42'0 0.0
2017-Sep-01 07:00N 37°55' E 023°42'0 0.0
2017-Sep-01 06:30N 37°55' E 023°42'0 0.0
2017-Sep-01 06:00N 37°55' E 023°42'0 0.0
2017-Sep-01 05:30N 37°55' E 023°42'0 0.0
2017-Sep-01 05:00N 37°55' E 023°42'0 0.0
2017-Sep-01 04:30N 37°55' E 023°42'0 0.0
2017-Sep-01 04:00N 37°55' E 023°42'0 0.0
2017-Sep-01 03:30N 37°55' E 023°42'0 0.0
2017-Sep-01 03:00N 37°55' E 023°42'0 0.0
2017-Sep-01 02:30N 37°55' E 023°42'0 0.0
2017-Sep-01 02:00N 37°55' E 023°42'0 0.0
2017-Sep-01 01:30N 37°55' E 023°42'0 0.0
2017-Sep-01 01:00N 37°55' E 023°42'0 0.0
2017-Sep-01 00:30N 37°55' E 023°42'0 0.0
2017-Sep-01 00:00N 37°55' E 023°42'0 0.0
2017-Aug-31 23:30N 37°55' E 023°42'0 0.0
2017-Aug-31 23:00N 37°55' E 023°42'0 0.0
2017-Aug-31 22:27N 37°55' E 023°42'0 0.0
2017-Aug-31 22:00N 37°55' E 023°42'0 0.0
2017-Aug-31 21:30N 37°55' E 023°42'0 0.0
2017-Aug-31 21:00N 37°55' E 023°42'0 0.0
2017-Aug-31 20:30N 37°55' E 023°42'0 0.0
2017-Aug-31 20:00N 37°55' E 023°42'0 0.0
2017-Aug-31 19:30N 37°55' E 023°42'0 0.0
2017-Aug-31 19:00N 37°55' E 023°42'0 0.0
2017-Aug-31 18:30N 37°55' E 023°42'0 0.0
2017-Aug-31 18:00N 37°55' E 023°42'0 0.0
2017-Aug-31 17:30N 37°55' E 023°42'0 0.0
2017-Aug-31 17:00N 37°55' E 023°42'0 0.0
2017-Aug-31 16:30N 37°55' E 023°42'0 0.0
2017-Aug-31 16:00N 37°55' E 023°42'0 0.0
2017-Aug-31 15:30N 37°55' E 023°42'  

Dump ship's entire track history